Terminal Aerodrome Forecast
Issued by NWS Portland, ME

Home | Current Version | Previous Version | Text Only | Print | Product List | Glossary On
Versions: 1 2 3 4 5 6 7 8 9 10 11 12 13 14 15 16 17 18 19
000
FTUS41 KGYX 182300
TAFPWM
TAF
KPWM 182320Z 1900/1924 14008KT P6SM SCT120 BKN200
     FM190700 VRB04KT P6SM BKN060 BKN090
     FM191300 32016G26KT P6SM SCT050 SCT100
     FM192000 32019G29KT P6SM SKC=

USA.gov is the U.S. government's official web portal to all federal, state and local government web resources and services.